Time;durP1;ratioP1;P1;durP2;ratioP2;P2;SDS_P1;SDS_P2;PMS_P1;PMS_P2;Temp;Humidity;BMP_temperature;BMP_pressure;BME280_temperature;BME280_humidity;BME280_pressure;Samples;Min_cycle;Max_cycle;Signal;HPM_P1;HPM_P2
2022/09/07 00:01:06;;;;;;;8.65;2.13;;;;;;;15.36;80.46;156381.56;5003218;28;20042;-75
2022/09/07 00:03:32;;;;;;;6.50;2.03;;;;;;;15.33;80.30;156372.56;5011986;28;20060;-79
2022/09/07 00:05:58;;;;;;;6.40;2.17;;;;;;;15.33;80.26;156372.56;4984144;28;20041;-78
2022/09/07 00:08:26;;;;;;;3.97;2.17;;;;;;;15.30;80.15;156364.88;4988929;28;20049;-78
2022/09/07 00:10:57;;;;;;;2.50;2.00;;;;;;;15.26;80.44;156355.84;5018521;28;20152;-78
2022/09/07 00:13:26;;;;;;;7.75;2.20;;;;;;;15.25;80.63;156352.00;4987120;28;20044;-78
2022/09/07 00:15:52;;;;;;;7.40;2.30;;;;;;;15.14;80.97;156326.28;5004807;28;20030;-77
2022/09/07 00:18:18;;;;;;;8.82;1.77;;;;;;;15.05;81.22;156303.13;5001431;28;20118;-78
2022/09/07 00:20:44;;;;;;;6.07;2.00;;;;;;;15.08;81.26;156309.53;4999990;28;20117;-77
2022/09/07 00:23:10;;;;;;;6.05;1.80;;;;;;;15.06;81.04;156305.66;4999919;28;20042;-77
2022/09/07 00:25:38;;;;;;;5.32;1.83;;;;;;;15.02;81.82;156295.38;5015860;28;20092;-78
2022/09/07 00:28:04;;;;;;;4.97;2.10;;;;;;;14.92;81.90;156269.66;4997254;28;20060;-78
2022/09/07 00:30:30;;;;;;;3.70;2.00;;;;;;;14.82;82.53;156245.19;5018552;28;20048;-77
2022/09/07 00:32:55;;;;;;;4.32;2.10;;;;;;;14.77;82.60;156233.63;4981335;28;20124;-76
2022/09/07 00:35:21;;;;;;;10.02;1.98;;;;;;;14.82;82.42;156243.91;5000814;28;20037;-77
2022/09/07 00:37:46;;;;;;;3.78;1.75;;;;;;;14.84;82.14;156250.34;5001305;28;20033;-78
2022/09/07 00:40:12;;;;;;;5.25;2.00;;;;;;;14.86;82.01;156255.53;4982249;28;20041;-77
2022/09/07 00:42:38;;;;;;;4.53;2.00;;;;;;;14.76;82.30;156231.03;5005024;28;20518;-77
2022/09/07 00:45:18;;;;;;;7.50;2.10;;;;;;;14.73;82.68;156222.03;4990624;28;20044;-78
2022/09/07 00:47:54;;;;;;;6.43;2.00;;;;;;;14.82;82.69;156243.91;4997898;28;20033;-79
2022/09/07 00:50:25;;;;;;;8.73;2.42;;;;;;;14.83;81.57;156246.50;5012139;28;20046;-77
2022/09/07 00:52:57;;;;;;;6.10;1.80;;;;;;;14.90;81.34;156265.81;5016612;28;20033;-78
2022/09/07 00:55:22;;;;;;;4.85;1.80;;;;;;;14.87;81.54;156258.06;5001839;28;20101;-78
2022/09/07 00:57:51;;;;;;;5.07;1.80;;;;;;;14.91;81.32;156267.06;5017820;28;20045;-79
2022/09/07 01:00:18;;;;;;;5.50;1.90;;;;;;;14.98;80.70;156286.38;5016884;28;20109;-78
2022/09/07 01:02:45;;;;;;;4.82;1.92;;;;;;;14.95;81.71;156277.38;5016355;28;20508;-79
2022/09/07 01:05:26;;;;;;;9.13;2.00;;;;;;;15.04;80.48;156300.53;4980082;28;20044;-77
2022/09/07 01:07:55;;;;;;;6.07;2.30;;;;;;;15.04;80.26;156299.25;4999425;28;20113;-77
2022/09/07 01:10:24;;;;;;;5.57;2.03;;;;;;;15.05;81.03;156301.78;4997783;28;20034;-78
2022/09/07 01:12:50;;;;;;;4.78;2.03;;;;;;;15.03;80.36;156296.66;4985647;28;20055;-78
2022/09/07 01:15:16;;;;;;;10.77;2.58;;;;;;;15.11;80.05;156317.28;4989128;28;20022;-77
2022/09/07 01:18:06;;;;;;;6.05;2.30;;;;;;;15.18;79.35;156336.56;5001015;28;20114;-78
2022/09/07 01:20:38;;;;;;;4.50;2.30;;;;;;;15.13;80.15;156322.41;4978145;28;20034;-76
2022/09/07 01:23:38;;;;;;;5.95;2.10;;;;;;;15.17;79.50;156333.97;4980909;28;20038;-78
2022/09/07 01:26:32;;;;;;;9.75;2.50;;;;;;;15.22;79.63;156345.56;5006500;28;20124;-79
2022/09/07 01:29:10;;;;;;;10.32;1.95;;;;;;;15.20;79.58;156340.44;4986292;28;20022;-77
2022/09/07 01:31:51;;;;;;;8.40;2.17;;;;;;;15.23;78.99;156346.84;5004275;28;20427;-81
2022/09/07 01:34:23;;;;;;;5.63;2.10;;;;;;;15.24;78.80;156349.41;5002831;28;20055;-80
2022/09/07 01:37:01;;;;;;;4.38;2.40;;;;;;;15.21;78.60;156342.97;5002179;28;20070;-77
2022/09/07 01:39:52;;;;;;;8.90;1.80;;;;;;;15.23;78.20;156346.84;5012264;28;20037;-77
2022/09/07 01:42:22;;;;;;;5.50;1.85;;;;;;;15.27;78.22;156358.41;4995275;28;20567;-81
2022/09/07 01:44:58;;;;;;;6.07;2.08;;;;;;;15.24;78.24;156349.41;5017435;28;20121;-80
2022/09/07 01:47:31;;;;;;;4.97;2.00;;;;;;;15.22;77.92;156345.56;5024152;28;20065;-79
2022/09/07 01:50:03;;;;;;;4.88;2.20;;;;;;;15.19;78.36;156339.09;5022043;22;20086;-78
2022/09/07 01:52:46;;;;;;;5.85;2.25;;;;;;;15.29;77.67;156362.28;4998648;28;20041;-80
2022/09/07 01:55:14;;;;;;;7.55;1.90;;;;;;;15.31;77.37;156368.75;5029961;28;20060;-81
2022/09/07 01:57:46;;;;;;;4.78;2.03;;;;;;;15.30;76.97;156364.88;5022629;28;20033;-79
2022/09/07 02:00:16;;;;;;;5.38;2.20;;;;;;;15.33;77.25;156373.88;5031333;28;20047;-81
2022/09/07 02:03:04;;;;;;;6.07;2.10;;;;;;;15.26;76.77;156355.84;5035388;28;20034;-80
2022/09/07 02:05:38;;;;;;;3.50;1.90;;;;;;;15.29;76.83;156363.53;5000891;28;20484;-81
2022/09/07 02:08:07;;;;;;;6.90;2.30;;;;;;;15.34;76.88;156376.44;4986373;28;20077;-83
2022/09/07 02:10:49;;;;;;;2.55;1.80;;;;;;;15.34;76.88;156376.44;5007329;28;20069;-80
2022/09/07 02:13:19;;;;;;;3.92;2.10;;;;;;;15.28;77.31;156359.72;5005563;28;20088;-83
2022/09/07 02:15:54;;;;;;;4.63;2.22;;;;;;;15.25;77.64;156353.25;4988359;28;20097;-81
2022/09/07 02:18:23;;;;;;;5.45;2.10;;;;;;;15.20;77.67;156340.44;5005742;28;20030;-80
2022/09/07 02:20:53;;;;;;;2.83;1.88;;;;;;;15.25;77.55;156352.00;5000815;28;20474;-80
2022/09/07 02:23:23;;;;;;;4.40;2.00;;;;;;;15.19;77.56;156337.84;5016796;28;20033;-80
2022/09/07 02:25:54;;;;;;;6.35;1.98;;;;;;;15.16;77.79;156330.09;4997819;28;20041;-79
2022/09/07 02:28:28;;;;;;;7.32;2.22;;;;;;;15.01;78.52;156291.50;4997688;28;20030;-82
2022/09/07 02:30:53;;;;;;;9.70;2.15;;;;;;;15.04;78.32;156300.53;5002759;28;20044;-81
2022/09/07 02:33:19;;;;;;;4.57;2.10;;;;;;;15.07;78.07;156306.94;5001440;28;20037;-80
2022/09/07 02:35:45;;;;;;;3.38;2.00;;;;;;;15.04;78.78;156299.25;4998747;28;20550;-80
2022/09/07 02:38:11;;;;;;;3.30;2.25;;;;;;;15.02;78.47;156294.09;5019512;28;20026;-81
2022/09/07 02:40:37;;;;;;;4.90;2.40;;;;;;;15.06;78.10;156305.66;5010318;28;20030;-81
2022/09/07 02:43:06;;;;;;;6.82;2.28;;;;;;;15.08;77.78;156309.53;5016636;28;20031;-80
2022/09/07 02:46:01;;;;;;;4.13;2.03;;;;;;;15.01;78.33;156291.50;4994575;28;20121;-80
2022/09/07 02:48:30;;;;;;;6.50;2.08;;;;;;;15.08;78.21;156309.53;5007343;28;20053;-81
2022/09/07 02:51:11;;;;;;;5.47;2.13;;;;;;;15.09;78.33;156312.13;5012324;28;20033;-80
2022/09/07 02:54:12;;;;;;;7.13;2.20;;;;;;;15.04;78.39;156300.53;5005252;28;20045;-80
2022/09/07 02:56:47;;;;;;;7.28;2.20;;;;;;;14.98;78.83;156285.09;5013870;28;20128;-81
2022/09/07 02:59:37;;;;;;;6.50;2.28;;;;;;;14.94;79.66;156276.09;4987163;28;20072;-81
2022/09/07 03:02:27;;;;;;;3.85;2.05;;;;;;;14.87;80.11;156258.06;5018150;28;20034;-80
2022/09/07 03:05:14;;;;;;;9.10;2.35;;;;;;;14.84;79.28;156249.06;5019704;28;20034;-81
2022/09/07 03:07:54;;;;;;;7.35;2.38;;;;;;;14.87;79.28;156256.78;5005093;28;20092;-81
2022/09/07 03:10:20;;;;;;;7.07;2.13;;;;;;;14.90;78.85;156265.81;5001847;28;20047;-80
2022/09/07 03:12:48;;;;;;;7.13;2.60;;;;;;;14.87;79.37;156258.06;4982288;28;20379;-81
2022/09/07 03:15:20;;;;;;;9.63;2.50;;;;;;;14.78;79.90;156236.19;5025419;28;20033;-80
2022/09/07 03:17:45;;;;;;;7.72;2.47;;;;;;;14.84;79.32;156249.06;5012407;28;20029;-82
2022/09/07 03:20:11;;;;;;;4.57;1.85;;;;;;;14.78;79.42;156236.19;5012066;28;20034;-81
2022/09/07 03:22:37;;;;;;;7.50;2.30;;;;;;;14.83;79.44;156246.50;5016485;28;20038;-81
2022/09/07 03:25:03;;;;;;;8.00;2.13;;;;;;;14.80;79.48;156240.06;4997926;28;20088;-79
2022/09/07 03:27:32;;;;;;;5.07;2.33;;;;;;;14.72;80.06;156219.50;4995677;28;20031;-81
2022/09/07 03:29:58;;;;;;;2.65;1.83;;;;;;;14.62;80.71;156195.06;4994417;28;20121;-82
2022/09/07 03:32:28;;;;;;;4.00;2.25;;;;;;;14.55;81.35;156177.00;5020215;28;20114;-81
2022/09/07 03:34:54;;;;;;;5.28;2.40;;;;;;;14.51;81.33;156166.72;4997194;28;20057;-81
2022/09/07 03:37:20;;;;;;;5.90;2.15;;;;;;;14.52;81.29;156169.25;4996700;28;20030;-81
2022/09/07 03:39:45;;;;;;;5.85;2.83;;;;;;;14.46;81.15;156153.84;5003645;28;20056;-82
2022/09/07 03:42:11;;;;;;;6.57;2.30;;;;;;;14.51;81.07;156168.00;5017091;28;20065;-80
2022/09/07 03:44:36;;;;;;;7.57;2.53;;;;;;;14.48;80.86;156158.97;5029505;28;20055;-81
2022/09/07 03:47:02;;;;;;;8.57;2.17;;;;;;;14.47;81.56;156157.72;4999707;28;20036;-81
2022/09/07 03:49:28;;;;;;;5.65;2.45;;;;;;;14.51;81.27;156166.72;5002573;28;20033;-80
2022/09/07 03:51:53;;;;;;;4.93;2.75;;;;;;;14.49;80.92;156162.84;4991585;28;20061;-80
2022/09/07 03:54:19;;;;;;;3.67;2.22;;;;;;;14.49;81.25;156161.56;5013575;28;20034;-82
2022/09/07 03:56:44;;;;;;;3.63;2.10;;;;;;;14.58;80.26;156186.06;5003591;28;20400;-83
2022/09/07 03:59:10;;;;;;;4.57;2.40;;;;;;;14.60;80.24;156189.91;4999995;28;20045;-81
2022/09/07 04:01:36;;;;;;;3.90;2.30;;;;;;;14.54;80.77;156175.72;5025543;28;20480;-80
2022/09/07 04:04:02;;;;;;;9.50;2.47;;;;;;;14.59;79.93;156187.31;4986561;28;20400;-82
2022/09/07 04:06:29;;;;;;;9.35;2.47;;;;;;;14.68;79.50;156209.22;5010785;28;20026;-80
2022/09/07 04:08:55;;;;;;;5.95;2.67;;;;;;;14.69;79.63;156211.75;5002322;28;20029;-80
2022/09/07 04:11:21;;;;;;;9.55;2.47;;;;;;;14.66;79.82;156205.34;5002967;28;20034;-80
2022/09/07 04:13:47;;;;;;;6.22;2.60;;;;;;;14.63;79.87;156197.59;5017485;28;20057;-81
2022/09/07 04:16:22;;;;;;;7.57;2.70;;;;;;;14.64;80.85;156200.19;4984989;28;20125;-80
2022/09/07 04:18:49;;;;;;;5.00;2.35;;;;;;;14.54;80.99;156175.72;5028460;28;20034;-81
2022/09/07 04:21:17;;;;;;;3.40;2.40;;;;;;;14.54;80.67;156175.72;5021811;28;20061;-79
2022/09/07 04:23:43;;;;;;;3.95;2.70;;;;;;;14.64;80.43;156198.94;5002027;28;20037;-81
2022/09/07 04:26:20;;;;;;;9.88;2.83;;;;;;;14.65;80.46;156201.47;4985929;28;20034;-82
2022/09/07 04:28:46;;;;;;;4.65;2.50;;;;;;;14.65;80.42;156201.47;5014448;28;20065;-82
2022/09/07 04:31:16;;;;;;;8.13;2.70;;;;;;;14.65;80.76;156202.75;5000860;28;20053;-81
2022/09/07 04:33:46;;;;;;;3.38;2.65;;;;;;;14.65;80.30;156202.75;5004043;28;20507;-80
2022/09/07 04:36:14;;;;;;;5.30;2.30;;;;;;;14.75;79.58;156227.22;5004631;28;20373;-81
2022/09/07 04:38:40;;;;;;;5.45;2.50;;;;;;;14.76;79.45;156229.78;5006058;28;20034;-82
2022/09/07 04:41:12;;;;;;;5.13;2.33;;;;;;;14.78;79.17;156234.91;5007975;28;20045;-81
2022/09/07 04:43:39;;;;;;;4.28;2.70;;;;;;;14.81;79.19;156241.38;4984122;28;20048;-81
2022/09/07 04:46:11;;;;;;;5.40;2.50;;;;;;;14.83;79.23;156247.78;5020709;28;20484;-80
2022/09/07 04:48:36;;;;;;;5.85;2.30;;;;;;;14.80;79.67;156240.06;5018371;28;20400;-81
2022/09/07 04:51:07;;;;;;;8.13;2.58;;;;;;;14.84;80.04;156249.06;5020912;28;20030;-80
2022/09/07 04:53:34;;;;;;;5.25;2.53;;;;;;;14.85;79.92;156252.94;5000105;28;20042;-80
2022/09/07 04:55:59;;;;;;;4.55;2.50;;;;;;;14.87;79.51;156258.06;5002770;28;20138;-81
2022/09/07 04:58:26;;;;;;;4.20;2.50;;;;;;;14.90;79.85;156265.81;5001901;28;20070;-81
2022/09/07 05:00:51;;;;;;;7.70;2.58;;;;;;;14.96;79.20;156281.22;5004860;28;20030;-81
2022/09/07 05:03:17;;;;;;;3.17;2.20;;;;;;;15.05;80.25;156301.78;5016731;28;20040;-82
2022/09/07 05:05:43;;;;;;;6.00;2.20;;;;;;;15.05;81.08;156303.13;5002290;28;20049;-80
2022/09/07 05:08:10;;;;;;;5.53;2.33;;;;;;;14.96;81.73;156279.97;5003350;28;20045;-80
2022/09/07 05:10:35;;;;;;;7.43;2.95;;;;;;;14.97;81.28;156282.50;5000570;28;20045;-80
2022/09/07 05:13:01;;;;;;;6.43;2.65;;;;;;;14.82;82.37;156243.91;5016969;28;20030;-80
2022/09/07 05:15:30;;;;;;;5.20;2.50;;;;;;;14.94;83.18;156274.81;5013683;28;20042;-81
2022/09/07 05:17:56;;;;;;;3.55;2.40;;;;;;;14.96;83.81;156281.22;5018202;28;20117;-82
2022/09/07 05:20:23;;;;;;;5.85;2.80;;;;;;;14.75;84.56;156228.50;4998732;28;20049;-81
2022/09/07 05:22:52;;;;;;;4.70;2.50;;;;;;;14.76;85.16;156231.03;4978455;28;20049;-81
2022/09/07 05:25:26;;;;;;;4.50;2.55;;;;;;;14.72;84.93;156219.50;4995679;28;20037;-81
2022/09/07 05:27:52;;;;;;;4.25;2.60;;;;;;;14.76;84.95;156229.78;5008654;28;20489;-82
2022/09/07 05:30:18;;;;;;;4.85;2.45;;;;;;;14.72;84.84;156220.75;4986521;28;20105;-81
2022/09/07 05:32:45;;;;;;;4.78;2.63;;;;;;;14.65;84.81;156201.47;5003869;28;20492;-81
2022/09/07 05:35:11;;;;;;;3.85;2.50;;;;;;;14.67;84.33;156207.88;5017404;28;20029;-82
2022/09/07 05:37:37;;;;;;;5.90;2.40;;;;;;;14.63;84.00;156196.34;5006821;28;20116;-82
2022/09/07 05:40:03;;;;;;;2.45;2.00;;;;;;;14.56;84.86;156180.88;5000867;28;20041;-81
2022/09/07 05:42:29;;;;;;;4.82;2.40;;;;;;;14.55;83.51;156178.28;4988397;28;20065;-81
2022/09/07 05:44:55;;;;;;;3.28;2.30;;;;;;;14.56;83.94;156180.88;4984795;28;20046;-81
2022/09/07 05:47:21;;;;;;;6.10;2.58;;;;;;;14.52;84.34;156170.59;5018988;28;20037;-81
2022/09/07 05:49:46;;;;;;;4.70;2.78;;;;;;;14.51;84.41;156166.72;5016402;28;20029;-81
2022/09/07 05:52:12;;;;;;;7.85;2.95;;;;;;;14.48;84.90;156160.25;5000295;28;20397;-82
2022/09/07 05:54:38;;;;;;;6.70;2.60;;;;;;;14.46;84.73;156155.13;4999747;28;20045;-83
2022/09/07 05:57:05;;;;;;;5.35;3.08;;;;;;;14.35;83.84;156128.16;5019442;28;20034;-82
2022/09/07 05:59:32;;;;;;;5.18;2.30;;;;;;;14.40;84.22;156140.97;4987274;28;20033;-82
2022/09/07 06:01:58;;;;;;;6.25;3.25;;;;;;;14.37;84.05;156133.28;5004418;28;20034;-81
2022/09/07 06:04:24;;;;;;;8.10;2.85;;;;;;;14.48;83.98;156160.25;4999279;28;20133;-82
2022/09/07 06:06:49;;;;;;;6.93;2.92;;;;;;;14.51;83.44;156166.72;5003686;28;20065;-82
2022/09/07 06:09:15;;;;;;;8.40;3.08;;;;;;;14.47;84.55;156157.72;4998987;28;20053;-81
2022/09/07 06:11:41;;;;;;;7.57;2.60;;;;;;;14.41;85.18;156143.56;5007595;28;20077;-83
2022/09/07 06:14:06;;;;;;;5.15;2.63;;;;;;;14.36;86.92;156129.41;4999205;28;20061;-81
2022/09/07 06:16:33;;;;;;;6.63;2.70;;;;;;;14.31;88.87;156116.53;4983272;28;20034;-80
2022/09/07 06:19:04;;;;;;;7.93;2.80;;;;;;;14.37;88.77;156131.97;5000665;28;20038;-80
2022/09/07 06:21:34;;;;;;;11.52;3.10;;;;;;;14.33;89.81;156122.97;5016003;28;20034;-79
2022/09/07 06:24:00;;;;;;;5.07;2.58;;;;;;;14.31;89.96;156116.53;5006184;28;20039;-80
2022/09/07 06:26:25;;;;;;;17.55;3.45;;;;;;;14.30;91.47;156115.28;5016410;28;20044;-80
2022/09/07 06:28:51;;;;;;;8.55;2.90;;;;;;;14.29;92.01;156112.69;5017028;28;20102;-80
2022/09/07 06:31:18;;;;;;;5.22;3.15;;;;;;;14.23;91.99;156096.00;4995847;28;20041;-79
2022/09/07 06:33:46;;;;;;;4.72;3.00;;;;;;;14.20;92.76;156090.84;5000902;28;20124;-81
2022/09/07 06:36:14;;;;;;;7.13;2.92;;;;;;;14.16;95.44;156079.25;5005993;28;20561;-80
2022/09/07 06:38:40;;;;;;;9.88;3.33;;;;;;;14.08;96.74;156059.97;5021210;28;20484;-79
2022/09/07 06:41:12;;;;;;;7.13;2.92;;;;;;;14.01;97.63;156041.97;5017122;28;20113;-79
2022/09/07 06:43:38;;;;;;;5.83;3.07;;;;;;;14.01;98.73;156043.28;5006414;28;20030;-80
2022/09/07 06:46:04;;;;;;;7.85;3.78;;;;;;;13.94;100.00;156025.28;5019593;28;20097;-77
2022/09/07 06:48:30;;;;;;;5.20;3.35;;;;;;;13.93;100.00;156021.41;4989584;28;20517;-77
2022/09/07 06:50:57;;;;;;;6.20;3.97;;;;;;;13.89;100.00;156012.41;5017816;28;20042;-79
2022/09/07 06:53:24;;;;;;;8.35;3.45;;;;;;;13.85;100.00;156000.84;5001009;28;20149;-78
2022/09/07 06:55:49;;;;;;;6.88;3.88;;;;;;;13.72;100.00;155969.97;4999649;28;20042;-78
2022/09/07 06:58:15;;;;;;;6.50;4.22;;;;;;;13.61;100.00;155941.69;5009092;28;20041;-78
2022/09/07 07:00:41;;;;;;;9.25;4.32;;;;;;;13.47;100.00;155907.00;4993183;28;20045;-78
2022/09/07 07:03:07;;;;;;;7.53;4.50;;;;;;;13.34;100.00;155873.59;4995661;28;20113;-78
2022/09/07 07:05:32;;;;;;;10.25;4.50;;;;;;;13.31;100.00;155867.16;5006529;28;20048;-77
2022/09/07 07:07:58;;;;;;;7.80;4.50;;;;;;;13.25;100.00;155852.97;4996164;28;20034;-77
2022/09/07 07:10:24;;;;;;;10.88;4.63;;;;;;;13.28;100.00;155858.09;4980611;28;20076;-77
2022/09/07 07:12:51;;;;;;;8.95;5.13;;;;;;;13.24;100.00;155850.41;4998461;28;20038;-77
2022/09/07 07:15:17;;;;;;;6.07;4.45;;;;;;;13.22;100.00;155843.97;5009598;28;20118;-77
2022/09/07 07:17:43;;;;;;;12.70;5.10;;;;;;;13.21;100.00;155841.41;5015018;28;20057;-78
2022/09/07 07:20:08;;;;;;;9.60;5.22;;;;;;;13.18;100.00;155834.97;4996419;28;20101;-78
2022/09/07 07:22:34;;;;;;;11.70;5.22;;;;;;;13.14;100.00;155823.41;5010736;28;20456;-78
2022/09/07 07:25:00;;;;;;;10.48;4.15;;;;;;;13.07;100.00;155805.41;4996448;28;20496;-77
2022/09/07 07:27:28;;;;;;;8.73;4.30;;;;;;;13.15;100.00;155826.00;5008549;28;20049;-78
2022/09/07 07:29:54;;;;;;;9.50;4.90;;;;;;;13.16;100.00;155829.81;5032775;28;20033;-78
2022/09/07 07:32:20;;;;;;;8.15;4.38;;;;;;;13.24;100.00;155850.41;5006641;28;20038;-76
2022/09/07 07:34:45;;;;;;;10.02;5.07;;;;;;;13.16;100.00;155828.56;5027211;28;20045;-77
2022/09/07 07:37:11;;;;;;;7.55;5.25;;;;;;;13.11;100.00;155815.69;5014367;28;20044;-77
2022/09/07 07:39:36;;;;;;;10.25;5.35;;;;;;;13.21;100.00;155841.41;5011155;28;20056;-76
2022/09/07 07:42:02;;;;;;;10.38;5.95;;;;;;;13.20;100.00;155840.16;4973643;28;20519;-77
2022/09/07 07:44:27;;;;;;;10.27;5.75;;;;;;;13.26;100.00;155854.28;5002795;28;20041;-76
2022/09/07 07:46:53;;;;;;;11.38;5.25;;;;;;;13.29;100.00;155861.97;5008527;28;20026;-77
2022/09/07 07:49:19;;;;;;;17.92;6.35;;;;;;;13.17;100.00;155831.16;5005239;28;20073;-77
2022/09/07 07:51:45;;;;;;;13.45;5.55;;;;;;;13.28;100.00;155858.09;5004067;28;20056;-76
2022/09/07 07:54:11;;;;;;;11.45;5.72;;;;;;;13.34;100.00;155874.88;4995622;28;20069;-76
2022/09/07 07:56:37;;;;;;;14.10;5.22;;;;;;;13.38;100.00;155885.16;5031108;22;20057;-72
2022/09/07 07:59:02;;;;;;;13.82;5.97;;;;;;;13.29;100.00;155861.97;5012136;28;20083;-71
2022/09/07 08:01:28;;;;;;;13.20;4.75;;;;;;;13.30;100.00;155863.22;4998271;28;20520;-71
2022/09/07 08:03:53;;;;;;;8.23;4.68;;;;;;;13.38;100.00;155883.88;5009127;28;20041;-71
2022/09/07 08:06:20;;;;;;;9.02;4.65;;;;;;;13.43;100.00;155898.00;5006988;28;20100;-71
2022/09/07 08:08:46;;;;;;;9.00;5.25;;;;;;;13.33;100.00;155871.00;5006730;28;20053;-70
2022/09/07 08:11:15;;;;;;;7.90;5.15;;;;;;;13.28;100.00;155858.09;4996353;28;20061;-71
2022/09/07 08:13:43;;;;;;;9.50;4.82;;;;;;;13.24;100.00;155850.41;5007327;28;20064;-71
2022/09/07 08:16:09;;;;;;;11.60;5.35;;;;;;;13.17;100.00;155832.41;4982715;28;20490;-71
2022/09/07 08:18:37;;;;;;;12.13;5.25;;;;;;;13.12;100.00;155818.28;4993665;28;20126;-71
2022/09/07 08:21:05;;;;;;;8.70;4.75;;;;;;;13.18;100.00;155833.69;5005839;28;20109;-72
2022/09/07 08:23:31;;;;;;;11.70;4.88;;;;;;;13.31;100.00;155865.88;5006730;28;20117;-72
2022/09/07 08:25:57;;;;;;;9.00;4.50;;;;;;;13.44;100.00;155899.28;4995153;28;20034;-72
2022/09/07 08:28:25;;;;;;;7.88;5.00;;;;;;;13.46;100.00;155903.16;5008776;28;20029;-71
2022/09/07 08:30:50;;;;;;;9.93;4.60;;;;;;;13.43;100.00;155896.75;5011244;28;20041;-71
2022/09/07 08:33:16;;;;;;;8.77;5.30;;;;;;;13.34;100.00;155874.88;5013511;28;20115;-70
2022/09/07 08:35:52;;;;;;;8.05;5.45;;;;;;;13.30;100.00;155863.22;4986716;28;20026;-71
2022/09/07 08:38:17;;;;;;;7.25;4.95;;;;;;;13.30;100.00;155864.59;5002617;28;20533;-71
2022/09/07 08:40:43;;;;;;;10.45;4.97;;;;;;;13.30;100.00;155863.22;5009105;28;20045;-71
2022/09/07 08:43:27;;;;;;;8.30;5.30;;;;;;;13.38;100.00;155885.16;5009708;28;20513;-70
2022/09/07 08:46:00;;;;;;;7.35;4.88;;;;;;;13.46;100.00;155904.44;5003548;28;20040;-71
2022/09/07 08:48:32;;;;;;;7.47;5.10;;;;;;;13.59;100.00;155937.84;5004517;28;20030;-71
2022/09/07 08:51:35;;;;;;;8.57;6.25;;;;;;;13.75;100.00;155977.72;5002609;28;20512;-71
2022/09/07 08:54:03;;;;;;;7.15;5.18;;;;;;;13.97;100.00;156031.69;5012458;28;20048;-71
2022/09/07 08:56:39;;;;;;;6.45;4.10;;;;;;;14.13;100.00;156071.56;5004383;28;20030;-71
2022/09/07 08:59:17;;;;;;;7.85;4.63;;;;;;;14.34;100.00;156124.28;5013157;28;20048;-71
2022/09/07 09:01:43;;;;;;;5.80;4.22;;;;;;;14.40;100.00;156139.69;5015951;28;20054;-71
2022/09/07 09:04:29;;;;;;;6.20;4.82;;;;;;;14.39;100.00;156138.41;5013512;28;20751;-71
2022/09/07 09:07:10;;;;;;;9.43;4.85;;;;;;;14.43;100.00;156146.13;4997682;28;20042;-71
2022/09/07 09:09:49;;;;;;;7.35;4.75;;;;;;;14.51;100.00;156166.72;5007698;28;20384;-72
2022/09/07 09:12:26;;;;;;;9.60;4.50;;;;;;;14.66;100.00;156205.34;4998782;28;20116;-72
2022/09/07 09:15:08;;;;;;;5.97;4.68;;;;;;;14.86;100.00;156255.53;5009785;28;20029;-71
2022/09/07 09:17:34;;;;;;;;;;;;;;;15.16;100.00;156331.41;4995875;28;20037;-71
2022/09/07 09:20:18;;;;;;;5.43;3.92;;;;;;;15.36;100.00;156380.28;4978356;28;19914;-71
2022/09/07 09:22:44;;;;;;;8.82;4.28;;;;;;;15.46;100.00;156406.00;4992170;28;20221;-72
2022/09/07 09:25:34;;;;;;;6.78;3.78;;;;;;;15.64;100.00;156449.78;4986408;28;20073;-71
2022/09/07 09:28:00;;;;;;;7.43;4.22;;;;;;;15.80;100.00;156491.00;5021231;28;20645;-72
2022/09/07 09:30:26;;;;;;;6.35;4.15;;;;;;;15.92;100.00;156521.91;4989660;28;20080;-72
2022/09/07 09:33:21;;;;;;;5.32;3.88;;;;;;;16.20;100.00;156591.44;5004195;28;20044;-71
2022/09/07 09:35:50;;;;;;;5.88;3.92;;;;;;;16.38;100.00;156636.47;5007907;28;20482;-72
2022/09/07 09:38:32;;;;;;;9.60;4.00;;;;;;;16.41;100.00;156644.22;5006033;28;20368;-72
2022/09/07 09:41:06;;;;;;;5.60;4.40;;;;;;;16.48;100.00;156662.25;5012463;28;20565;-71
2022/09/07 09:43:55;;;;;;;10.93;4.10;;;;;;;16.65;100.00;156703.41;5010841;28;20486;-72
2022/09/07 09:46:33;;;;;;;9.85;4.45;;;;;;;16.54;100.00;156676.41;4994148;28;20906;-72
2022/09/07 09:49:13;;;;;;;10.90;4.32;;;;;;;16.59;100.00;156687.97;4999590;28;20505;-72
2022/09/07 09:51:51;;;;;;;6.40;4.38;;;;;;;16.57;100.00;156684.09;4995247;28;20049;-73
2022/09/07 09:54:27;;;;;;;6.35;4.22;;;;;;;16.60;100.00;156691.84;4994371;28;20034;-73
2022/09/07 09:56:53;;;;;;;8.20;4.15;;;;;;;16.59;100.00;156687.97;5010357;28;20394;-72
2022/09/07 09:59:22;;;;;;;8.23;4.55;;;;;;;16.79;100.00;156739.47;5009672;28;20040;-74
2022/09/07 10:01:49;;;;;;;8.02;3.83;;;;;;;16.78;100.00;156736.88;4990296;28;20550;-73
2022/09/07 10:04:24;;;;;;;5.53;4.03;;;;;;;16.85;100.00;156753.69;4989541;28;20046;-74
2022/09/07 10:06:51;;;;;;;7.40;4.10;;;;;;;16.95;100.00;156779.44;4992174;28;20502;-72
2022/09/07 10:09:23;;;;;;;7.97;4.30;;;;;;;17.06;100.00;156807.78;5015171;28;20045;-74
2022/09/07 10:11:58;;;;;;;8.98;4.47;;;;;;;17.38;98.09;156887.63;4994811;28;20041;-73
2022/09/07 10:14:27;;;;;;;9.13;4.43;;;;;;;17.72;95.43;156972.66;4994906;28;20059;-73
2022/09/07 10:16:53;;;;;;;10.88;4.38;;;;;;;17.99;94.52;157041.03;4997021;28;20095;-74
2022/09/07 10:19:35;;;;;;;6.65;4.20;;;;;;;18.37;97.34;157135.13;5013344;28;20505;-73
2022/09/07 10:22:18;;;;;;;10.13;4.63;;;;;;;18.72;93.36;157224.03;4995530;28;20034;-74
2022/09/07 10:24:44;;;;;;;6.03;4.40;;;;;;;18.85;89.96;157256.31;4980633;28;20042;-74
2022/09/07 10:27:20;;;;;;;7.25;4.07;;;;;;;19.01;92.38;157296.31;4998787;28;20510;-73
2022/09/07 10:29:45;;;;;;;8.43;4.20;;;;;;;19.10;87.11;157319.53;5020454;28;20395;-73
2022/09/07 10:32:23;;;;;;;7.03;4.00;;;;;;;19.19;86.53;157341.41;5016940;28;20475;-73
2022/09/07 10:34:53;;;;;;;5.47;4.40;;;;;;;19.11;84.57;157320.81;4996096;28;20046;-72
2022/09/07 10:37:51;;;;;;;13.10;4.30;;;;;;;18.93;85.62;157275.66;5012222;28;20038;-75
2022/09/07 10:40:53;;;;;;;7.82;4.28;;;;;;;18.83;85.82;157251.16;5010284;28;20040;-73
2022/09/07 10:43:39;;;;;;;4.80;3.97;;;;;;;18.94;86.90;157279.53;4998513;28;20109;-75
2022/09/07 10:46:36;;;;;;;6.30;3.70;;;;;;;19.16;86.06;157335.00;5008510;28;20034;-74
2022/09/07 10:49:08;;;;;;;6.07;4.00;;;;;;;19.56;83.30;157435.56;4994722;28;20037;-76
2022/09/07 10:51:52;;;;;;;6.63;4.23;;;;;;;19.56;82.47;157434.28;4993735;28;20060;-74
2022/09/07 10:54:42;;;;;;;5.93;3.85;;;;;;;19.78;82.98;157489.81;5011569;28;20046;-73
2022/09/07 10:57:29;;;;;;;6.75;4.00;;;;;;;19.84;81.15;157505.28;5005991;28;20045;-73
2022/09/07 11:00:10;;;;;;;7.50;3.90;;;;;;;19.94;81.14;157529.78;5010293;28;20030;-74
2022/09/07 11:03:01;;;;;;;9.95;4.00;;;;;;;20.01;80.88;157549.13;4996010;28;20063;-74
2022/09/07 11:05:51;;;;;;;7.50;4.05;;;;;;;20.26;80.23;157611.06;5009472;28;20042;-73
2022/09/07 11:08:33;;;;;;;5.72;4.30;;;;;;;20.16;79.27;157585.28;5008333;28;20044;-73
2022/09/07 11:11:32;;;;;;;7.63;4.30;;;;;;;20.13;79.90;157578.78;5002282;28;20049;-73
2022/09/07 11:14:10;;;;;;;7.72;4.32;;;;;;;20.21;80.02;157598.13;4996889;28;20030;-73
2022/09/07 11:16:50;;;;;;;5.18;4.60;;;;;;;20.41;80.08;157648.47;5007479;28;20034;-73
2022/09/07 11:19:22;;;;;;;9.27;4.95;;;;;;;20.49;80.10;157669.09;4991676;28;20487;-73
2022/09/07 11:22:03;;;;;;;9.27;5.25;;;;;;;20.47;79.32;157662.66;5007461;28;20045;-74
2022/09/07 11:24:47;;;;;;;6.28;4.32;;;;;;;20.67;78.54;157714.34;5009985;28;20083;-74
2022/09/07 11:27:25;;;;;;;7.95;5.22;;;;;;;20.52;77.81;157675.59;5010620;28;20487;-75
2022/09/07 11:30:03;;;;;;;8.93;4.65;;;;;;;20.89;80.01;157769.84;4996951;28;20047;-75
2022/09/07 11:32:34;;;;;;;7.65;4.18;;;;;;;21.10;80.36;157821.50;5008344;28;20044;-76
2022/09/07 11:35:20;;;;;;;4.82;4.32;;;;;;;21.32;78.94;157878.28;5004029;28;20034;-74
2022/09/07 11:38:02;;;;;;;7.80;4.88;;;;;;;21.16;77.09;157836.97;5008637;28;20049;-74
2022/09/07 11:40:54;;;;;;;6.63;4.57;;;;;;;21.32;76.77;157876.97;5005932;28;20087;-73